Élőkép

Információk

Albatrosz Repülő Egyesület
8000 Székesfehérvár,
Radványi utca 6.

Adószám:
19092908-2-07

Bankszámla szám:
Budapest Bank
10102952-01361819-00000001

Telefon: +36 30 9598-897

Telephey: Börgönd repülőtér

Börgöndi repülõtér

LHBP METAR/TAF

[source: ADDS]
METAR
TAF LHBP 040500Z 0406/0506 33005KT CAVOK BECMG 0407/0409 07007KT BECMG 0414/0416 03007KT BECMG 0418/0420 VRB02KT TAF
TAF LHBP 040500Z 0406/0506 33005KT CAVOK BECMG 0407/0409 07007KT BECMG 0414/0416 03007KT BECMG 0418/0420 VRB02KT =
SR / SS: 02:59 / 18:45 UTC (Börgönd 2015-07-04)
Hungarian Chinese (Simplified) Croatian Czech English Finnish French German Hebrew Italian Japanese Polish Portuguese Romanian Russian Serbian Slovak Slovenian Spanish

Belépés tagoknak